WetterOnline ( http://www.wetteronline.de )

Wetter aktuell Thiessow

Aktuelles Wetter: Putbus/Rügen (41m)

6-stündlich | Neueste Meldungen
Ortszeit Temperatur Wetter
Mo, 24.09. 2:00 9.6° C wolkenlos
So, 23.09. 20:00 8.8° C starker Regen
So, 23.09. 14:00 13.7° C wolkig
So, 23.09. 8:00 8.9° C leichter Regen
So, 23.09. 2:00 9.8° C leicht bewölkt
Sa, 22.09. 20:00 11.0° C leicht bewölkt
Sa, 22.09. 14:00 15.2° C wolkig
Sa, 22.09. 8:00 9.8° C bewölkt
Ortszeit Temperatur Wetter
Mo, 24.09. 5:00 10.0° C fast wolkenlos
Mo, 24.09. 4:50 10.0° C fast wolkenlos
Mo, 24.09. 4:40 9.9° C leicht bewölkt
Mo, 24.09. 4:30 9.8° C wolkenlos
Mo, 24.09. 4:20 9.8° C wolkenlos
Mo, 24.09. 4:10 9.8° C wolkenlos
Mo, 24.09. 4:00 9.9° C wolkenlos
Mo, 24.09. 3:30 9.8° C leicht bewölkt
Mo, 24.09. 3:00 9.9° C wolkig
Mo, 24.09. 2:30 9.9° C leicht bewölkt
Mo, 24.09. 2:00 9.6° C wolkenlos
Ortszeit Relative Feuchte Sichtweite
Mo, 24.09. 2:00 79% 35 km
So, 23.09. 20:00 92% 0.4 km
So, 23.09. 14:00 69% 26 km
So, 23.09. 8:00 92% 9 km
So, 23.09. 2:00 86% 26 km
Sa, 22.09. 20:00 77% 45 km
Sa, 22.09. 14:00 61% 21 km
Sa, 22.09. 8:00 86% 19 km
Ortszeit Relative Feuchte Sichtweite
Mo, 24.09. 5:00 71% 35 km
Mo, 24.09. 4:50 71% -
Mo, 24.09. 4:40 72% -
Mo, 24.09. 4:30 76% 30 km
Mo, 24.09. 4:20 76% -
Mo, 24.09. 4:10 76% -
Mo, 24.09. 4:00 77% 30 km
Mo, 24.09. 3:30 80% 30 km
Mo, 24.09. 3:00 79% 29 km
Mo, 24.09. 2:30 78% 30 km
Mo, 24.09. 2:00 79% 35 km
Ortszeit Niederschlagsmenge Niederschlagsart
Mo, 24.09. 2:00 0.6 l/m2 in 6 Std. Regen
So, 23.09. 20:00 5 l/m2 in 12 Std. Regen
So, 23.09. 14:00 0.1 l/m2 in 6 Std. Regen
So, 23.09. 8:00 0.1 l/m2 in 12 Std. Regen
So, 23.09. 2:00 0.0 l/m2 in 6 Std. -
Sa, 22.09. 20:00 5 l/m2 in 12 Std. Regen
Sa, 22.09. 14:00 0.0 l/m2 in 6 Std. -
Sa, 22.09. 8:00 0.0 l/m2 in 12 Std. -
Ortszeit Niederschlagsmenge Niederschlagsart
Mo, 24.09. 5:00 0.0 l/m2 in 1 Std. -
Mo, 24.09. 4:50 keine Meldung -
Mo, 24.09. 4:40 keine Meldung -
Mo, 24.09. 4:30 0.0 l/m2 in 1 Std. -
Mo, 24.09. 4:20 keine Meldung -
Mo, 24.09. 4:10 keine Meldung -
Mo, 24.09. 4:00 0.0 l/m2 in 1 Std. -
Mo, 24.09. 3:30 0.0 l/m2 in 1 Std. -
Mo, 24.09. 3:00 0.0 l/m2 in 1 Std. -
Mo, 24.09. 2:30 0.0 l/m2 in 1 Std. -
Mo, 24.09. 2:00 0.0 l/m2 in 1 Std. Regen
Ortszeit Stärke Spitze Richtung
km/h Bft. km/h Grad Sektor
Mo, 24.09. 2:00 20 4 31 290° W
So, 23.09. 20:00 22 4 36 300° NW
So, 23.09. 14:00 18 3 32 250° W
So, 23.09. 8:00 20 4 35 250° W
So, 23.09. 2:00 22 4 40 240° SW
Sa, 22.09. 20:00 24 4 67 240° SW
Sa, 22.09. 14:00 30 5 54 250° W
Sa, 22.09. 8:00 22 4 47 240° SW
Ortszeit Stärke Spitze Richtung
km/h Bft. km/h Grad Sektor
Mo, 24.09. 5:00 26 4 50 310° NW
Mo, 24.09. 4:50 26 4 - 310° NW
Mo, 24.09. 4:40 25 4 - 310° NW
Mo, 24.09. 4:30 22 4 40 300° NW
Mo, 24.09. 4:20 22 4 - 300° NW
Mo, 24.09. 4:10 22 4 - 300° NW
Mo, 24.09. 4:00 25 4 43 300° NW
Mo, 24.09. 3:30 25 4 43 300° NW
Mo, 24.09. 3:00 22 4 32 300° NW
Mo, 24.09. 2:30 22 4 33 300° NW
Mo, 24.09. 2:00 20 4 31 290° W
Ortszeit Untergrenze Bedeckung Gattung
total tief tief mittel hoch
Mo, 24.09. 2:00 - 0/8 0/8 - - -
So, 23.09. 20:00 <30 m 7/8 7/8 - - -
So, 23.09. 14:00 720 m 7/8 3/8 - - -
So, 23.09. 8:00 510 m 7/8 7/8 - - -
So, 23.09. 2:00 1800 m 2/8 2/8 - - -
Sa, 22.09. 20:00 1800 m 2/8 2/8 - - -
Sa, 22.09. 14:00 1140 m 6/8 6/8 - - -
Sa, 22.09. 8:00 930 m 8/8 4/8 - - -
Ortszeit Bedeckungsgrad in Achtel und Wolkenuntergrenze
Mo, 24.09. 5:00 1(960m)
Mo, 24.09. 4:50 1(960m)
Mo, 24.09. 4:40 1(990m) 2(1350m)
Mo, 24.09. 4:30 1(930m)
Mo, 24.09. 4:20 keine Wolken
Mo, 24.09. 4:10 keine Wolken
Mo, 24.09. 4:00 keine Wolken
Mo, 24.09. 3:30 2(690m) 4(1500m)
Mo, 24.09. 3:00 3(720m) 5(1470m) 9
Mo, 24.09. 2:30 1(1230m) 2(1500m)
Mo, 24.09. 2:00 keine Wolken
Ortszeit Luftdruck NN (hPa) Tendenz (hPa in 3 Std.)
Mo, 24.09. 2:00 1011 + 2,0
So, 23.09. 20:00 1007 - 0,8
So, 23.09. 14:00 1010 - 1,7
So, 23.09. 8:00 1012 - 0,1
So, 23.09. 2:00 1013 - 0,1
Sa, 22.09. 20:00 1013 - 0,5
Sa, 22.09. 14:00 1013 - 0,5
Sa, 22.09. 8:00 1011 + 1,7
Ortszeit Luftdruck NN (hPa) Tendenz (hPa in 3 Std.)
Mo, 24.09. 5:00 1013 + 2,4
Mo, 24.09. 4:50 1013 keine Meldung
Mo, 24.09. 4:40 1013 keine Meldung
Mo, 24.09. 4:30 1012 + 2,3
Mo, 24.09. 4:20 1012 keine Meldung
Mo, 24.09. 4:10 1012 keine Meldung
Mo, 24.09. 4:00 1012 + 2,0
Mo, 24.09. 3:30 1012 + 2,2
Mo, 24.09. 3:00 1011 + 2,0
Mo, 24.09. 2:30 1011 + 2,3
Mo, 24.09. 2:00 1011 + 2,0
Ortszeit Schneehöhe (cm)
Mo, 24.09. 2:00 -
So, 23.09. 20:00 -
So, 23.09. 14:00 -
So, 23.09. 8:00 -
So, 23.09. 2:00 -
Sa, 22.09. 20:00 -
Sa, 22.09. 14:00 -
Sa, 22.09. 8:00 -
Ortszeit Schneehöhe (cm)
Mo, 24.09. 5:00 -
Mo, 24.09. 4:50 -
Mo, 24.09. 4:40 -
Mo, 24.09. 4:30 -
Mo, 24.09. 4:20 -
Mo, 24.09. 4:10 -
Mo, 24.09. 4:00 -
Mo, 24.09. 3:30 -
Mo, 24.09. 3:00 -
Mo, 24.09. 2:30 -
Mo, 24.09. 2:00 -
Link zu dieser Seite / Seite empfehlen

Das Wetter in ...